Time;durP1;ratioP1;P1;durP2;ratioP2;P2;SDS_P1;SDS_P2;PMS_P1;PMS_P2;Temp;Humidity;BMP_temperature;BMP_pressure;BME280_temperature;BME280_humidity;BME280_pressure;Samples;Min_cycle;Max_cycle;Signal;HPM_P1;HPM_P2
2024/01/25 00:01:13;;;;;;;37.42;5.97;;;7.60;99.90;;;;;;5067164;28;20041;-70
2024/01/25 00:03:38;;;;;;;38.10;5.85;;;7.60;99.90;;;;;;5067090;28;20052;-68
2024/01/25 00:06:05;;;;;;;40.50;6.07;;;7.60;99.90;;;;;;5047827;28;20408;-69
2024/01/25 00:08:31;;;;;;;35.40;5.47;;;7.60;99.90;;;;;;5065075;28;20063;-69
2024/01/25 00:10:57;;;;;;;40.38;6.70;;;7.50;99.90;;;;;;5065439;28;20511;-69
2024/01/25 00:13:24;;;;;;;52.40;5.55;;;7.50;99.90;;;;;;5052033;28;20543;-69
2024/01/25 00:15:50;;;;;;;35.35;5.60;;;7.50;99.90;;;;;;5069256;28;20059;-69
2024/01/25 00:18:16;;;;;;;39.75;6.15;;;8.10;99.90;;;;;;5067333;28;20040;-69
2024/01/25 00:20:41;;;;;;;44.72;6.22;;;7.40;99.90;;;;;;5067689;28;20040;-69
2024/01/25 00:23:07;;;;;;;35.58;5.65;;;7.40;99.90;;;;;;5065867;28;20032;-68
2024/01/25 00:25:33;;;;;;;39.22;6.20;;;7.40;99.90;;;;;;5049779;28;20048;-68
2024/01/25 00:27:59;;;;;;;42.65;6.95;;;7.30;99.90;;;;;;5047255;28;20521;-68
2024/01/25 00:30:25;;;;;;;32.72;5.40;;;7.30;99.90;;;;;;5066856;28;20052;-68
2024/01/25 00:32:51;;;;;;;36.38;6.40;;;7.60;99.90;;;;;;5065585;28;20047;-69
2024/01/25 00:35:17;;;;;;;39.25;5.53;;;7.20;99.90;;;;;;5065263;28;20040;-68
2024/01/25 00:37:43;;;;;;;38.47;5.85;;;7.30;99.90;;;;;;5066579;28;20054;-68
2024/01/25 00:40:10;;;;;;;40.80;5.40;;;7.20;99.90;;;;;;5063393;28;20037;-69
2024/01/25 00:42:45;;;;;;;35.67;5.20;;;7.20;99.90;;;;;;5066080;28;20055;-69
2024/01/25 00:45:11;;;;;;;39.85;6.30;;;7.20;99.90;;;;;;5065296;28;20052;-69
2024/01/25 00:47:37;;;;;;;36.10;6.22;;;7.20;99.90;;;;;;5052751;28;20519;-69
2024/01/25 00:50:04;;;;;;;34.40;6.05;;;7.10;99.90;;;;;;5049542;28;20051;-69
2024/01/25 00:52:30;;;;;;;41.65;5.43;;;7.10;99.90;;;;;;5050571;28;20044;-69
2024/01/25 00:54:56;;;;;;;37.90;6.45;;;6.80;99.90;;;;;;5063971;28;20048;-69
2024/01/25 00:57:22;;;;;;;29.20;4.35;;;7.10;99.90;;;;;;5063458;28;20183;-69
2024/01/25 00:59:48;;;;;;;48.72;6.53;;;7.10;99.90;;;;;;5065603;28;20056;-69
2024/01/25 01:02:14;;;;;;;44.72;6.07;;;7.00;99.90;;;;;;5064702;28;20050;-70
2024/01/25 01:04:41;;;;;;;33.30;5.07;;;7.00;99.90;;;;;;5061473;28;20773;-70
2024/01/25 01:07:07;;;;;;;32.63;4.78;;;7.00;99.90;;;;;;5061463;28;20135;-69
2024/01/25 01:09:33;;;;;;;27.88;4.65;;;7.00;99.90;;;;;;5064566;28;20362;-69
2024/01/25 01:11:59;;;;;;;41.28;5.53;;;7.00;99.90;;;;;;5048985;28;20123;-69
2024/01/25 01:14:24;;;;;;;32.78;4.97;;;7.60;99.90;;;;;;5064362;28;20098;-69
2024/01/25 01:16:53;;;;;;;34.85;4.88;;;7.00;99.90;;;;;;5064869;28;20055;-70
2024/01/25 01:19:19;;;;;;;32.47;4.75;;;7.40;99.90;;;;;;5066609;28;20039;-69
2024/01/25 01:21:45;;;;;;;35.13;5.72;;;7.00;99.90;;;;;;5062356;28;20048;-69
2024/01/25 01:24:11;;;;;;;32.83;6.18;;;6.90;99.90;;;;;;5066003;28;20051;-69
2024/01/25 01:26:37;;;;;;;35.40;5.15;;;6.90;99.90;;;;;;5049591;28;20123;-69
2024/01/25 01:29:04;;;;;;;36.05;5.50;;;6.90;99.90;;;;;;5048783;28;20120;-69
2024/01/25 01:31:30;;;;;;;30.67;4.85;;;7.10;99.90;;;;;;5047097;28;20082;-71
2024/01/25 01:33:57;;;;;;;34.35;6.57;;;6.90;99.90;;;;;;5059986;28;20052;-68
2024/01/25 01:36:23;;;;;;;39.85;5.07;;;6.90;99.90;;;;;;5049850;28;20055;-69
2024/01/25 01:38:49;;;;;;;30.55;5.38;;;6.90;99.90;;;;;;5046168;28;21481;-70
2024/01/25 01:41:15;;;;;;;34.38;5.03;;;6.90;99.90;;;;;;5062301;28;20078;-69
2024/01/25 01:43:41;;;;;;;31.95;4.53;;;6.90;99.90;;;;;;5065190;28;20497;-69
2024/01/25 01:46:11;;;;;;;33.90;5.25;;;6.90;99.90;;;;;;5048479;28;20102;-69
2024/01/25 01:48:39;;;;;;;34.50;5.40;;;6.80;99.90;;;;;;5061535;28;20044;-69
2024/01/25 01:51:05;;;;;;;29.75;4.85;;;6.90;99.90;;;;;;5046762;28;20084;-69
2024/01/25 01:53:33;;;;;;;44.17;6.22;;;6.80;99.90;;;;;;5061376;28;20501;-69
2024/01/25 01:55:59;;;;;;;32.90;5.25;;;6.90;99.90;;;;;;5060230;28;20574;-68
2024/01/25 01:58:26;;;;;;;35.10;4.22;;;6.80;99.90;;;;;;5061640;28;20052;-69
2024/01/25 02:00:55;;;;;;;42.90;5.07;;;7.00;99.90;;;;;;5091795;27;20094;-68
2024/01/25 02:03:21;;;;;;;38.35;5.10;;;6.80;99.90;;;;;;5060812;28;20504;-68
2024/01/25 02:05:47;;;;;;;41.53;5.85;;;7.00;99.90;;;;;;5062230;28;20061;-69
2024/01/25 02:08:13;;;;;;;35.67;4.78;;;6.70;99.90;;;;;;5061179;28;20047;-68
2024/01/25 02:10:38;;;;;;;34.80;6.18;;;7.40;99.90;;;;;;5062725;28;20033;-70
2024/01/25 02:13:04;;;;;;;37.33;5.82;;;6.80;99.90;;;;;;5061479;28;20177;-70
2024/01/25 02:15:30;;;;;;;33.35;5.55;;;6.80;99.90;;;;;;5061493;28;20477;-69
2024/01/25 02:17:56;;;;;;;46.25;5.18;;;6.70;99.90;;;;;;5059071;28;20520;-70
2024/01/25 02:20:22;;;;;;;40.10;6.00;;;6.70;99.90;;;;;;5043220;28;20028;-69
2024/01/25 02:22:47;;;;;;;29.10;5.15;;;6.70;99.90;;;;;;5043636;28;20240;-69
2024/01/25 02:25:13;;;;;;;35.13;5.13;;;6.70;99.90;;;;;;5045863;28;20041;-68
2024/01/25 02:27:39;;;;;;;43.90;5.72;;;6.70;99.90;;;;;;5061044;28;20063;-69
2024/01/25 02:30:08;;;;;;;40.97;5.47;;;6.70;99.90;;;;;;5044443;28;20070;-69
2024/01/25 02:32:34;;;;;;;35.70;6.03;;;6.70;99.90;;;;;;5060294;28;20131;-68
2024/01/25 02:35:00;;;;;;;34.55;5.30;;;6.60;99.90;;;;;;5044159;28;20147;-68
2024/01/25 02:37:26;;;;;;;36.90;5.72;;;6.70;99.90;;;;;;5060474;28;20699;-69
2024/01/25 02:39:52;;;;;;;37.63;5.40;;;6.60;99.90;;;;;;5044023;28;20113;-68
2024/01/25 02:42:19;;;;;;;38.25;6.05;;;6.60;99.90;;;;;;5060227;28;20494;-68
2024/01/25 02:44:44;;;;;;;47.28;6.70;;;6.60;99.90;;;;;;5061399;28;20036;-68
2024/01/25 02:47:10;;;;;;;42.60;5.90;;;6.60;99.90;;;;;;5059045;28;20114;-69
2024/01/25 02:49:36;;;;;;;40.83;5.95;;;6.70;99.90;;;;;;5058450;28;20127;-68
2024/01/25 02:52:02;;;;;;;39.53;6.65;;;6.60;99.90;;;;;;5060934;28;20109;-68
2024/01/25 02:54:28;;;;;;;46.05;6.10;;;6.60;99.90;;;;;;5062453;28;20083;-68
2024/01/25 02:56:54;;;;;;;42.65;6.15;;;6.50;99.90;;;;;;5057506;28;20525;-68
2024/01/25 02:59:20;;;;;;;37.35;6.57;;;6.60;99.90;;;;;;5064472;28;20703;-69
2024/01/25 03:01:47;;;;;;;37.58;6.45;;;6.60;99.90;;;;;;5060608;28;20060;-69
2024/01/25 03:04:12;;;;;;;46.45;5.95;;;6.60;99.90;;;;;;5060660;28;20044;-68
2024/01/25 03:06:38;;;;;;;46.58;6.50;;;6.50;99.90;;;;;;5063591;28;20495;-68
2024/01/25 03:09:07;;;;;;;34.47;6.00;;;6.50;99.90;;;;;;5061752;28;20052;-68
2024/01/25 03:11:33;;;;;;;44.72;6.15;;;6.50;99.90;;;;;;5064814;28;20041;-68
2024/01/25 03:13:59;;;;;;;38.10;7.18;;;6.50;99.90;;;;;;5063986;28;20558;-69
2024/01/25 03:16:25;;;;;;;47.78;5.85;;;6.50;99.90;;;;;;5064470;28;20128;-69
2024/01/25 03:18:51;;;;;;;45.22;5.75;;;6.50;99.90;;;;;;5062153;28;20127;-69
2024/01/25 03:21:16;;;;;;;44.67;6.53;;;6.50;99.90;;;;;;5064530;28;20032;-69
2024/01/25 03:23:42;;;;;;;46.22;7.35;;;6.50;99.90;;;;;;5067639;28;20049;-69
2024/01/25 03:26:08;;;;;;;34.03;6.30;;;6.40;99.90;;;;;;5064805;28;20044;-69
2024/01/25 03:28:38;;;;;;;37.78;5.65;;;6.50;99.90;;;;;;5066931;28;20044;-69
2024/01/25 03:31:04;;;;;;;38.15;4.80;;;6.90;99.90;;;;;;5064781;28;20053;-69
2024/01/25 03:33:32;;;;;;;49.17;6.15;;;6.40;99.90;;;;;;5064099;28;20455;-69
2024/01/25 03:36:04;;;;;;;54.17;6.85;;;6.40;99.90;;;;;;5047091;28;20048;-69
2024/01/25 03:38:30;;;;;;;41.63;7.07;;;6.40;99.90;;;;;;5047865;28;20097;-68
2024/01/25 03:40:58;;;;;;;42.75;5.88;;;6.40;99.90;;;;;;5064198;28;20048;-69
2024/01/25 03:43:23;;;;;;;38.75;6.28;;;6.30;99.90;;;;;;5064537;28;20051;-69
2024/01/25 03:45:49;;;;;;;51.00;7.10;;;6.60;99.90;;;;;;5065400;28;20041;-69
2024/01/25 03:48:15;;;;;;;33.35;5.10;;;6.50;99.90;;;;;;5063547;28;20068;-69
2024/01/25 03:50:41;;;;;;;37.63;6.25;;;6.40;99.90;;;;;;5063260;28;20220;-68
2024/01/25 03:53:07;;;;;;;37.90;5.65;;;6.30;99.90;;;;;;5063043;28;20058;-69
2024/01/25 03:55:33;;;;;;;40.28;6.03;;;6.30;99.90;;;;;;5042863;28;20063;-69
2024/01/25 03:57:59;;;;;;;30.30;5.20;;;6.30;99.90;;;;;;5063675;28;20114;-69
2024/01/25 04:00:24;;;;;;;37.25;6.88;;;6.30;99.90;;;;;;5063228;28;20044;-69
2024/01/25 04:02:51;;;;;;;48.92;5.63;;;6.30;99.90;;;;;;5063860;28;20075;-69
2024/01/25 04:05:16;;;;;;;32.10;5.53;;;6.20;99.90;;;;;;5063421;28;20048;-69
2024/01/25 04:07:42;;;;;;;38.53;5.75;;;6.20;99.90;;;;;;5056540;28;20045;-68
2024/01/25 04:10:08;;;;;;;34.50;5.53;;;6.20;99.90;;;;;;5061501;28;20481;-69
2024/01/25 04:12:34;;;;;;;41.25;6.25;;;6.20;99.90;;;;;;5063601;28;20721;-69
2024/01/25 04:15:00;;;;;;;41.33;5.93;;;6.20;99.90;;;;;;5061879;28;20052;-69
2024/01/25 04:17:25;;;;;;;47.78;6.45;;;6.20;99.90;;;;;;5063256;28;20082;-69
2024/01/25 04:19:51;;;;;;;35.97;5.85;;;6.20;99.90;;;;;;5062792;28;20040;-69
2024/01/25 04:22:17;;;;;;;34.40;4.97;;;6.10;99.90;;;;;;5060088;28;20044;-69
2024/01/25 04:24:43;;;;;;;44.92;6.10;;;6.10;99.90;;;;;;5061285;28;20710;-69
2024/01/25 04:27:10;;;;;;;36.30;5.22;;;6.10;99.90;;;;;;5064078;28;20078;-69
2024/01/25 04:29:45;;;;;;;27.08;5.60;;;6.10;99.90;;;;;;5062845;28;20049;-69
2024/01/25 04:32:12;;;;;;;36.92;5.40;;;6.10;99.90;;;;;;5065072;28;20040;-69
2024/01/25 04:34:38;;;;;;;43.78;5.78;;;6.10;99.90;;;;;;5062843;28;20056;-69
2024/01/25 04:37:04;;;;;;;30.08;5.30;;;6.10;99.90;;;;;;5062725;28;20056;-69
2024/01/25 04:39:29;;;;;;;34.92;5.20;;;6.20;99.90;;;;;;5062134;28;20076;-69
2024/01/25 04:41:55;;;;;;;45.78;5.75;;;6.20;99.90;;;;;;5062187;28;20550;-69
2024/01/25 04:44:21;;;;;;;41.95;5.88;;;6.00;99.90;;;;;;5046179;28;20037;-68
2024/01/25 04:46:46;;;;;;;29.48;5.60;;;6.00;99.90;;;;;;5046109;28;20052;-68
2024/01/25 04:49:12;;;;;;;28.10;5.05;;;6.00;99.90;;;;;;5060778;28;20044;-70
2024/01/25 04:51:38;;;;;;;45.00;7.32;;;5.90;99.90;;;;;;5063414;28;20079;-69
2024/01/25 04:54:04;;;;;;;37.80;5.93;;;5.90;99.90;;;;;;5045570;28;20858;-69
2024/01/25 04:56:29;;;;;;;33.08;5.22;;;5.90;99.90;;;;;;5062834;28;20562;-69
2024/01/25 04:58:55;;;;;;;32.05;5.50;;;5.90;99.90;;;;;;5063792;28;20047;-69
2024/01/25 05:01:21;;;;;;;41.28;5.90;;;5.80;99.90;;;;;;5038563;28;20044;-68
2024/01/25 05:03:47;;;;;;;40.65;5.65;;;5.80;99.90;;;;;;5039116;28;20102;-69
2024/01/25 05:06:12;;;;;;;41.08;4.75;;;5.80;99.90;;;;;;5060617;28;20066;-68
2024/01/25 05:08:38;;;;;;;40.08;6.65;;;5.80;99.90;;;;;;5061668;28;20430;-69
2024/01/25 05:11:04;;;;;;;36.60;4.97;;;5.80;99.90;;;;;;5060614;28;20167;-69
2024/01/25 05:13:30;;;;;;;37.08;5.32;;;5.80;99.90;;;;;;5060618;28;20041;-69
2024/01/25 05:15:56;;;;;;;36.55;4.22;;;5.80;99.90;;;;;;5041690;28;20141;-68
2024/01/25 05:18:21;;;;;;;41.15;5.55;;;5.80;99.90;;;;;;5042011;28;20127;-69
2024/01/25 05:20:47;;;;;;;32.33;5.43;;;5.70;99.90;;;;;;5060109;28;20127;-68
2024/01/25 05:23:13;;;;;;;45.08;5.80;;;5.70;99.90;;;;;;5060035;28;20087;-68
2024/01/25 05:25:38;;;;;;;42.40;5.88;;;6.00;99.90;;;;;;5046387;28;20050;-68
2024/01/25 05:28:04;;;;;;;38.28;5.45;;;5.70;99.90;;;;;;5055867;28;20040;-69
2024/01/25 05:30:30;;;;;;;43.90;5.30;;;5.70;99.90;;;;;;5054031;28;20074;-69
2024/01/25 05:32:56;;;;;;;32.63;4.80;;;5.70;99.90;;;;;;5058918;28;20052;-68
2024/01/25 05:35:23;;;;;;;44.70;5.90;;;5.60;99.90;;;;;;5060058;28;20052;-68
2024/01/25 05:37:49;;;;;;;32.15;5.15;;;5.90;99.90;;;;;;5057744;28;20095;-68
2024/01/25 05:40:15;;;;;;;40.63;5.35;;;5.60;99.90;;;;;;5044641;28;20139;-69
2024/01/25 05:42:41;;;;;;;31.67;5.25;;;5.60;99.90;;;;;;5062755;28;20584;-68
2024/01/25 05:45:08;;;;;;;40.72;4.70;;;5.60;99.90;;;;;;5056533;28;20127;-69
2024/01/25 05:47:34;;;;;;;37.65;4.75;;;5.60;99.90;;;;;;5056708;28;20757;-69
2024/01/25 05:50:00;;;;;;;38.05;4.93;;;5.50;99.90;;;;;;5060079;28;20145;-67
2024/01/25 05:52:26;;;;;;;35.95;5.15;;;5.50;99.90;;;;;;5044158;28;20114;-69
2024/01/25 05:54:52;;;;;;;34.13;5.60;;;5.50;99.90;;;;;;5061542;28;20052;-69
2024/01/25 05:57:19;;;;;;;36.08;5.07;;;5.60;99.90;;;;;;5058159;28;20130;-68
2024/01/25 05:59:45;;;;;;;32.33;5.63;;;5.50;99.90;;;;;;5060204;28;20053;-69
2024/01/25 06:02:10;;;;;;;35.88;5.97;;;5.50;99.90;;;;;;5037313;28;20441;-69
2024/01/25 06:04:37;;;;;;;31.77;4.60;;;5.40;99.90;;;;;;5060170;28;20079;-68
2024/01/25 06:07:03;;;;;;;35.97;6.10;;;5.40;99.90;;;;;;5060135;28;20053;-69
2024/01/25 06:09:29;;;;;;;30.20;5.47;;;5.40;99.90;;;;;;5055289;28;20048;-69
2024/01/25 06:11:54;;;;;;;30.50;5.18;;;5.30;99.90;;;;;;5050104;28;20099;-68
2024/01/25 06:14:20;;;;;;;29.52;5.18;;;5.40;99.90;;;;;;5055924;28;20064;-68
2024/01/25 06:16:46;;;;;;;34.55;5.18;;;5.30;99.90;;;;;;5037808;28;20091;-68
2024/01/25 06:19:12;;;;;;;29.98;4.15;;;5.30;99.90;;;;;;5058017;28;20060;-68
2024/01/25 06:21:38;;;;;;;38.85;5.75;;;5.30;99.90;;;;;;5057900;28;20048;-68
2024/01/25 06:24:04;;;;;;;33.22;4.93;;;5.30;99.90;;;;;;5059459;28;20413;-68
2024/01/25 06:26:30;;;;;;;31.25;4.55;;;5.20;99.90;;;;;;5058075;28;20135;-68
2024/01/25 06:28:56;;;;;;;34.85;6.05;;;5.70;99.90;;;;;;5061663;28;20182;-68
2024/01/25 06:31:24;;;;;;;42.15;4.40;;;5.20;99.90;;;;;;5061427;28;20048;-69
2024/01/25 06:33:50;;;;;;;33.75;6.20;;;5.20;99.90;;;;;;5085195;28;20420;-68
2024/01/25 06:36:16;;;;;;;29.33;4.82;;;5.20;99.90;;;;;;5044327;28;20048;-69
2024/01/25 06:38:42;;;;;;;36.63;5.82;;;5.10;99.90;;;;;;5057486;28;20040;-68
2024/01/25 06:41:11;;;;;;;32.63;4.47;;;5.10;99.90;;;;;;5063531;28;20040;-68
2024/01/25 06:43:36;;;;;;;33.22;5.25;;;5.10;99.90;;;;;;5061375;28;20106;-69
2024/01/25 06:46:02;;;;;;;30.27;5.60;;;5.10;99.90;;;;;;5060287;28;20056;-68
2024/01/25 06:48:28;;;;;;;33.45;4.90;;;5.70;99.90;;;;;;5046934;28;20455;-68
2024/01/25 06:50:54;;;;;;;37.00;5.72;;;5.00;99.90;;;;;;5063678;28;20129;-69
2024/01/25 06:53:21;;;;;;;31.30;4.72;;;5.00;99.90;;;;;;5063855;28;20079;-69
2024/01/25 06:55:47;;;;;;;31.08;5.45;;;5.00;99.90;;;;;;5063338;28;20135;-69
2024/01/25 06:58:13;;;;;;;39.13;4.90;;;4.90;99.90;;;;;;5061671;28;20799;-69
2024/01/25 07:00:39;;;;;;;40.70;5.25;;;5.60;99.90;;;;;;5062740;28;20041;-70
2024/01/25 07:03:05;;;;;;;32.83;5.25;;;4.90;99.90;;;;;;5062695;28;20101;-68
2024/01/25 07:05:33;;;;;;;30.25;5.35;;;4.90;99.90;;;;;;5064931;28;20210;-68
2024/01/25 07:07:59;;;;;;;31.80;5.47;;;4.90;99.90;;;;;;5063422;28;20055;-69
2024/01/25 07:10:25;;;;;;;40.35;4.70;;;4.80;99.90;;;;;;5063762;28;20382;-69
2024/01/25 07:12:52;;;;;;;30.85;4.80;;;4.80;99.90;;;;;;5061981;28;20087;-68
2024/01/25 07:15:18;;;;;;;30.48;4.90;;;4.70;99.90;;;;;;5061093;28;20036;-68
2024/01/25 07:17:44;;;;;;;33.67;5.15;;;4.70;99.90;;;;;;5061249;28;20129;-69
2024/01/25 07:20:10;;;;;;;36.88;5.10;;;4.70;99.90;;;;;;5059850;28;20036;-68
2024/01/25 07:22:36;;;;;;;29.27;4.25;;;4.70;99.90;;;;;;5059375;28;20048;-69
2024/01/25 07:25:01;;;;;;;29.48;5.20;;;4.70;99.90;;;;;;5057321;28;20102;-69
2024/01/25 07:27:27;;;;;;;30.70;5.95;;;4.60;99.90;;;;;;5059047;28;20037;-69
2024/01/25 07:29:53;;;;;;;43.22;5.38;;;4.60;99.90;;;;;;5043067;28;20052;-69
2024/01/25 07:32:20;;;;;;;32.83;4.85;;;4.60;99.90;;;;;;5059554;28;20093;-68
2024/01/25 07:34:48;;;;;;;27.45;4.32;;;4.50;99.90;;;;;;5059643;28;20051;-68
2024/01/25 07:37:15;;;;;;;30.73;4.45;;;4.50;99.90;;;;;;5061641;28;20409;-68
2024/01/25 07:39:40;;;;;;;33.95;5.05;;;4.50;99.90;;;;;;5062133;28;20498;-68
2024/01/25 07:42:06;;;;;;;24.92;4.88;;;4.50;99.90;;;;;;5060627;28;20511;-69
2024/01/25 07:44:32;;;;;;;28.77;4.35;;;4.50;99.90;;;;;;5064713;28;20036;-69
2024/01/25 07:46:57;;;;;;;30.40;4.78;;;4.90;99.90;;;;;;5062544;28;20052;-68
2024/01/25 07:49:23;;;;;;;37.22;5.47;;;4.40;99.90;;;;;;5062801;28;20729;-69
2024/01/25 07:51:49;;;;;;;36.90;4.72;;;4.40;99.90;;;;;;5062504;28;20455;-68
2024/01/25 07:54:15;;;;;;;34.88;4.88;;;4.40;99.90;;;;;;5063092;28;20045;-69
2024/01/25 07:56:40;;;;;;;49.78;7.00;;;5.00;99.90;;;;;;5062742;28;20285;-68
2024/01/25 07:59:07;;;;;;;39.97;5.25;;;4.40;99.90;;;;;;5056189;28;20398;-67
2024/01/25 08:01:32;;;;;;;45.88;6.93;;;4.40;99.90;;;;;;5055967;28;20135;-69
2024/01/25 08:03:59;;;;;;;37.90;5.32;;;4.50;99.90;;;;;;5045278;28;20051;-68
2024/01/25 08:06:26;;;;;;;37.25;6.72;;;4.40;99.90;;;;;;5043118;28;20056;-69
2024/01/25 08:08:52;;;;;;;34.47;6.45;;;4.40;99.90;;;;;;5043836;28;20083;-68
2024/01/25 08:11:20;;;;;;;41.20;7.07;;;4.80;99.90;;;;;;5038289;28;20119;-68
2024/01/25 08:13:47;;;;;;;42.85;6.93;;;4.40;99.90;;;;;;5029181;28;20037;-68
2024/01/25 08:16:13;;;;;;;37.33;6.25;;;4.40;99.90;;;;;;5043461;28;20524;-68
2024/01/25 08:18:40;;;;;;;37.28;6.35;;;4.40;99.90;;;;;;5047589;28;20061;-69
2024/01/25 08:21:06;;;;;;;40.40;6.72;;;4.50;99.90;;;;;;5032059;28;20059;-69
2024/01/25 08:23:31;;;;;;;36.53;5.82;;;4.40;99.90;;;;;;5048338;28;21225;-68
2024/01/25 08:25:57;;;;;;;50.30;6.43;;;4.80;99.90;;;;;;5048259;28;20052;-68
2024/01/25 08:28:23;;;;;;;43.97;6.75;;;4.50;99.90;;;;;;5045531;28;20045;-68
2024/01/25 08:30:49;;;;;;;39.22;6.13;;;4.50;99.90;;;;;;5027072;28;20129;-69
2024/01/25 08:33:16;;;;;;;43.80;6.20;;;4.50;99.90;;;;;;5044076;28;20122;-68
2024/01/25 08:35:42;;;;;;;34.33;5.07;;;4.50;99.90;;;;;;5045995;28;20048;-68
2024/01/25 08:38:08;;;;;;;45.33;5.97;;;4.50;99.90;;;;;;5063217;28;20159;-69
2024/01/25 08:40:33;;;;;;;48.55;6.32;;;4.50;99.90;;;;;;5044762;28;20059;-68
2024/01/25 08:42:59;;;;;;;50.03;6.80;;;4.50;99.90;;;;;;5046256;28;20582;-68
2024/01/25 08:45:25;;;;;;;45.38;6.90;;;4.50;99.90;;;;;;5040028;28;20088;-68
2024/01/25 08:47:52;;;;;;;33.42;5.60;;;4.60;99.90;;;;;;5090011;28;20044;-68
2024/01/25 08:50:18;;;;;;;48.90;7.28;;;5.30;99.90;;;;;;5052314;28;20037;-68
2024/01/25 08:52:44;;;;;;;39.28;5.93;;;4.60;99.90;;;;;;5041619;28;20149;-68
2024/01/25 08:55:10;;;;;;;49.22;5.93;;;4.60;99.90;;;;;;5042180;28;20068;-68
2024/01/25 08:57:36;;;;;;;43.65;6.72;;;4.60;99.90;;;;;;5055383;28;20736;-68
2024/01/25 09:00:08;;;;;;;45.08;6.85;;;4.70;99.90;;;;;;5056724;28;20052;-68
2024/01/25 09:02:34;;;;;;;41.30;6.70;;;4.70;99.90;;;;;;5032149;28;20049;-68
2024/01/25 09:05:00;;;;;;;39.65;6.68;;;4.70;99.90;;;;;;5038940;28;20055;-68
2024/01/25 09:07:25;;;;;;;40.22;5.30;;;4.70;99.90;;;;;;5046640;28;20064;-69
2024/01/25 09:09:51;;;;;;;45.90;6.32;;;4.70;99.90;;;;;;5028870;28;20056;-68
2024/01/25 09:12:17;;;;;;;38.28;6.18;;;4.80;99.90;;;;;;5054323;28;20067;-68
2024/01/25 09:14:43;;;;;;;35.70;6.28;;;4.80;99.90;;;;;;5030700;28;20044;-69
2024/01/25 09:17:09;;;;;;;40.88;7.20;;;4.80;99.90;;;;;;5037421;28;20049;-68
2024/01/25 09:19:35;;;;;;;46.15;5.75;;;4.90;99.90;;;;;;5040193;28;20064;-68
2024/01/25 09:22:04;;;;;;;45.90;6.60;;;4.90;99.90;;;;;;5055306;28;20434;-69
2024/01/25 09:24:31;;;;;;;39.42;5.57;;;4.90;99.90;;;;;;5038098;28;20040;-68
2024/01/25 09:26:58;;;;;;;40.90;5.93;;;5.00;99.90;;;;;;5041467;28;20086;-68
2024/01/25 09:29:24;;;;;;;45.15;6.25;;;5.00;99.90;;;;;;5056290;28;20098;-69
2024/01/25 09:31:51;;;;;;;47.10;6.80;;;5.00;99.90;;;;;;5039361;28;20587;-69
2024/01/25 09:34:16;;;;;;;44.00;6.05;;;5.10;99.90;;;;;;5054724;28;20616;-67
2024/01/25 09:36:42;;;;;;;41.13;7.78;;;5.10;99.90;;;;;;5058211;28;20043;-68
2024/01/25 09:39:08;;;;;;;46.40;6.25;;;5.20;99.90;;;;;;5056202;28;20040;-68
2024/01/25 09:41:34;;;;;;;38.85;6.10;;;5.10;99.90;;;;;;5055885;28;20040;-68
2024/01/25 09:44:00;;;;;;;44.08;6.45;;;5.70;99.90;;;;;;5054559;28;20053;-69
2024/01/25 09:46:27;;;;;;;31.38;6.75;;;5.20;99.90;;;;;;5048323;28;20116;-69
2024/01/25 09:48:52;;;;;;;42.70;6.55;;;5.20;99.90;;;;;;5055654;28;20056;-68
2024/01/25 09:51:18;;;;;;;40.38;6.28;;;5.30;99.90;;;;;;5038588;28;20834;-69
2024/01/25 09:53:48;;;;;;;34.70;5.97;;;5.30;99.90;;;;;;5056258;28;20117;-69
2024/01/25 09:56:17;;;;;;;37.03;7.28;;;5.30;99.90;;;;;;5039208;28;20554;-69
2024/01/25 09:58:47;;;;;;;36.40;6.53;;;5.30;99.90;;;;;;5057049;28;20049;-69
2024/01/25 10:01:15;;;;;;;37.25;5.65;;;5.40;99.90;;;;;;5057570;28;20128;-70
2024/01/25 10:03:45;;;;;;;40.10;5.97;;;5.40;99.90;;;;;;5041821;28;20051;-70
2024/01/25 10:06:12;;;;;;;51.28;6.45;;;5.80;99.90;;;;;;5077233;28;20052;-68
2024/01/25 10:08:38;;;;;;;43.55;7.18;;;5.50;99.90;;;;;;5055220;28;20122;-68
2024/01/25 10:11:05;;;;;;;40.45;6.78;;;5.60;99.90;;;;;;5038910;28;20048;-68
2024/01/25 10:13:31;;;;;;;50.05;6.80;;;5.50;99.90;;;;;;5038928;28;20587;-68
2024/01/25 10:15:57;;;;;;;34.45;5.93;;;5.50;99.90;;;;;;5037026;28;20037;-68
2024/01/25 10:18:27;;;;;;;40.22;7.15;;;5.60;99.90;;;;;;5033661;28;20497;-68
2024/01/25 10:20:54;;;;;;;36.47;6.15;;;5.60;99.90;;;;;;5056891;28;20037;-68
2024/01/25 10:23:20;;;;;;;31.58;5.95;;;5.50;99.90;;;;;;5064444;28;20421;-68
2024/01/25 10:25:46;;;;;;;41.97;6.63;;;5.60;99.90;;;;;;5055640;28;20048;-69
2024/01/25 10:28:12;;;;;;;30.45;6.10;;;5.60;99.90;;;;;;5038858;28;20041;-68
2024/01/25 10:30:38;;;;;;;39.15;6.80;;;5.60;99.90;;;;;;5054108;28;20055;-68
2024/01/25 10:33:04;;;;;;;42.75;6.80;;;5.50;99.90;;;;;;5034743;28;20129;-71
2024/01/25 10:35:31;;;;;;;40.10;6.70;;;5.60;99.90;;;;;;5055762;28;20075;-69
2024/01/25 10:37:57;;;;;;;40.80;6.43;;;5.60;99.90;;;;;;5057235;28;20128;-69
2024/01/25 10:40:23;;;;;;;42.03;6.85;;;5.60;99.90;;;;;;5053396;28;20044;-68
2024/01/25 10:42:49;;;;;;;46.70;7.43;;;6.10;99.90;;;;;;5048364;28;20079;-69
2024/01/25 10:45:15;;;;;;;40.47;6.30;;;5.70;99.90;;;;;;5052930;28;20040;-69
2024/01/25 10:47:41;;;;;;;50.45;7.28;;;6.10;99.90;;;;;;5037654;28;20117;-69
2024/01/25 10:50:13;;;;;;;48.22;7.10;;;5.80;99.90;;;;;;5053822;28;20036;-68
2024/01/25 10:52:41;;;;;;;37.25;6.10;;;5.90;99.90;;;;;;5057753;28;20119;-68
2024/01/25 10:55:08;;;;;;;42.28;6.32;;;6.00;99.90;;;;;;5056853;28;20049;-68
2024/01/25 10:57:39;;;;;;;44.47;8.60;;;6.20;99.90;;;;;;5040554;28;20114;-69
2024/01/25 11:00:10;;;;;;;40.47;7.25;;;6.00;99.90;;;;;;5050926;28;20048;-68
2024/01/25 11:02:37;;;;;;;38.55;5.22;;;6.10;99.90;;;;;;5057354;28;20120;-69
2024/01/25 11:05:10;;;;;;;45.20;7.00;;;6.10;99.90;;;;;;5057186;28;20910;-68
2024/01/25 11:07:46;;;;;;;40.83;7.75;;;6.10;99.90;;;;;;5052421;28;20060;-69
2024/01/25 11:10:18;;;;;;;37.15;5.78;;;6.20;99.90;;;;;;5057346;28;20068;-69
2024/01/25 11:12:59;;;;;;;51.65;6.50;;;6.20;99.90;;;;;;5054693;28;20052;-69
2024/01/25 11:15:35;;;;;;;41.70;6.32;;;6.20;99.90;;;;;;5036395;28;20189;-69
2024/01/25 11:18:08;;;;;;;40.47;7.13;;;6.20;99.90;;;;;;5060754;28;20500;-69
2024/01/25 11:20:35;;;;;;;40.42;6.30;;;6.30;99.90;;;;;;5072081;28;20093;-69
2024/01/25 11:23:06;;;;;;;37.67;6.45;;;6.50;99.90;;;;;;5057341;28;20679;-69
2024/01/25 11:25:37;;;;;;;41.35;6.40;;;6.30;99.90;;;;;;5059195;28;20040;-69
2024/01/25 11:28:04;;;;;;;50.93;7.17;;;6.60;99.90;;;;;;5060360;28;20049;-69
2024/01/25 11:30:34;;;;;;;43.20;6.60;;;6.40;99.90;;;;;;5059799;28;20299;-69
2024/01/25 11:33:00;;;;;;;36.60;6.50;;;6.40;99.90;;;;;;5058484;28;20676;-69
2024/01/25 11:35:26;;;;;;;43.88;8.07;;;6.40;99.90;;;;;;5043064;28;20182;-69
2024/01/25 11:37:53;;;;;;;35.50;5.85;;;6.50;99.90;;;;;;5087127;28;20041;-69
2024/01/25 11:40:19;;;;;;;46.13;6.68;;;6.50;99.90;;;;;;5059458;28;20086;-69
2024/01/25 11:42:48;;;;;;;38.67;8.57;;;6.50;99.90;;;;;;5058778;28;20052;-69
2024/01/25 11:45:14;;;;;;;37.08;6.82;;;6.50;99.90;;;;;;5046159;28;20044;-69
2024/01/25 11:47:41;;;;;;;35.00;6.40;;;6.50;99.90;;;;;;5053471;28;20048;-69
2024/01/25 11:50:09;;;;;;;37.47;6.85;;;6.60;99.90;;;;;;5058037;28;20037;-69
2024/01/25 11:52:35;;;;;;;44.75;6.80;;;6.60;99.90;;;;;;5056228;28;20043;-68
2024/01/25 11:55:06;;;;;;;42.05;7.10;;;6.80;99.90;;;;;;5044214;28;20686;-67
2024/01/25 11:57:38;;;;;;;52.28;6.97;;;6.70;99.90;;;;;;5088392;28;20393;-67
2024/01/25 12:00:12;;;;;;;44.47;7.85;;;6.80;99.90;;;;;;5050212;28;20665;-67
2024/01/25 12:02:38;;;;;;;44.47;6.72;;;6.80;99.90;;;;;;5054411;28;20667;-67
2024/01/25 12:05:05;;;;;;;42.15;6.65;;;6.90;99.90;;;;;;5055500;28;20060;-67
2024/01/25 12:07:31;;;;;;;40.30;6.63;;;6.90;99.90;;;;;;5052965;28;20098;-67
2024/01/25 12:10:03;;;;;;;36.17;5.40;;;6.90;99.90;;;;;;5044717;28;20102;-67
2024/01/25 12:12:29;;;;;;;41.50;6.05;;;6.90;99.90;;;;;;5059648;28;20048;-67
2024/01/25 12:15:03;;;;;;;42.30;7.15;;;6.90;99.90;;;;;;5048413;28;20099;-67
2024/01/25 12:17:33;;;;;;;36.17;6.38;;;7.00;99.90;;;;;;5044768;28;20488;-67
2024/01/25 12:20:00;;;;;;;30.52;7.18;;;7.00;99.90;;;;;;5043176;28;20055;-67
2024/01/25 12:22:30;;;;;;;39.47;6.35;;;7.00;99.90;;;;;;5038833;28;20383;-66
2024/01/25 12:24:57;;;;;;;35.78;6.40;;;7.10;99.90;;;;;;5061379;28;20497;-66
2024/01/25 12:27:25;;;;;;;31.42;5.57;;;7.10;99.90;;;;;;5059283;28;20044;-66
2024/01/25 12:29:55;;;;;;;42.40;6.72;;;7.10;99.90;;;;;;5040144;28;20048;-68
2024/01/25 12:32:21;;;;;;;38.97;6.07;;;7.20;99.90;;;;;;5058064;28;20040;-66
2024/01/25 12:34:57;;;;;;;43.40;7.25;;;7.20;99.90;;;;;;5062335;28;20702;-66
2024/01/25 12:37:23;;;;;;;36.33;6.25;;;7.80;99.90;;;;;;5039155;28;20048;-67
2024/01/25 12:39:51;;;;;;;40.97;6.32;;;7.30;99.90;;;;;;5060884;28;20076;-67
2024/01/25 12:42:17;;;;;;;35.00;4.72;;;7.30;99.90;;;;;;5057806;28;20079;-66
2024/01/25 12:44:43;;;;;;;35.45;5.57;;;7.60;99.90;;;;;;5056097;28;20070;-67